Time;durP1;ratioP1;P1;durP2;ratioP2;P2;SDS_P1;SDS_P2;PMS_P1;PMS_P2;Temp;Humidity;BMP_temperature;BMP_pressure;BME280_temperature;BME280_humidity;BME280_pressure;Samples;Min_cycle;Max_cycle;Signal;HPM_P1;HPM_P2
2022/09/22 00:00:59;;;;;;;19.40;6.38;;;7.10;99.90;;;;;;5014148;28;20386;-75
2022/09/22 00:03:36;;;;;;;17.05;5.10;;;7.00;99.90;;;;;;5012936;28;20045;-76
2022/09/22 00:06:21;;;;;;;12.65;4.22;;;7.00;99.90;;;;;;5014464;28;20057;-75
2022/09/22 00:08:50;;;;;;;11.15;3.90;;;7.00;99.90;;;;;;5014091;28;20505;-75
2022/09/22 00:11:22;;;;;;;16.70;4.28;;;6.90;99.90;;;;;;4997057;28;20038;-76
2022/09/22 00:13:58;;;;;;;12.85;4.30;;;6.90;99.90;;;;;;5013237;28;20057;-76
2022/09/22 00:16:35;;;;;;;9.85;3.65;;;6.80;99.90;;;;;;5013141;28;20517;-76
2022/09/22 00:19:04;;;;;;;9.30;3.05;;;6.90;99.90;;;;;;5012661;28;20052;-77
2022/09/22 00:21:30;;;;;;;11.70;3.42;;;6.80;99.90;;;;;;5014070;28;20042;-78
2022/09/22 00:23:56;;;;;;;12.80;3.60;;;6.80;99.90;;;;;;5013932;28;20104;-76
2022/09/22 00:26:23;;;;;;;9.57;3.20;;;6.80;99.90;;;;;;5013100;28;20054;-76
2022/09/22 00:28:50;;;;;;;17.65;3.25;;;6.70;99.90;;;;;;5012698;28;20398;-77
2022/09/22 00:31:20;;;;;;;;;;;6.70;99.90;;;;;;5013695;28;20384;-79
2022/09/22 00:33:47;;;;;;;7.95;2.88;;;6.70;99.90;;;;;;5012772;28;20320;-77
2022/09/22 00:36:14;;;;;;;10.23;3.10;;;6.70;99.90;;;;;;5012085;28;20124;-76
2022/09/22 00:38:41;;;;;;;12.65;2.72;;;6.70;99.90;;;;;;5012472;28;20372;-75
2022/09/22 00:41:15;;;;;;;13.07;2.90;;;6.60;99.90;;;;;;5013693;28;20133;-75
2022/09/22 00:43:42;;;;;;;9.70;3.35;;;6.60;99.90;;;;;;5013558;28;20058;-75
2022/09/22 00:46:17;;;;;;;;;;;6.50;99.90;;;;;;5012990;28;20494;-77
2022/09/22 00:48:55;;;;;;;9.00;2.88;;;6.50;99.90;;;;;;5012673;28;19921;-77
2022/09/22 00:51:24;;;;;;;15.32;3.40;;;6.50;99.90;;;;;;5012947;28;20124;-76
2022/09/22 00:53:51;;;;;;;7.97;2.40;;;6.50;99.90;;;;;;4995809;28;20188;-75
2022/09/22 00:56:27;;;;;;;9.30;2.92;;;6.50;99.90;;;;;;5012941;28;20076;-75
2022/09/22 00:58:59;;;;;;;9.70;3.78;;;6.50;99.90;;;;;;5013050;28;20050;-75
2022/09/22 01:01:25;;;;;;;16.13;3.60;;;6.40;99.90;;;;;;4995515;28;20052;-75
2022/09/22 01:03:53;;;;;;;10.13;3.03;;;6.40;99.90;;;;;;5012027;28;20046;-75
2022/09/22 01:06:23;;;;;;;13.30;3.38;;;6.40;99.90;;;;;;5013435;28;20069;-76
2022/09/22 01:08:50;;;;;;;13.77;2.95;;;6.40;99.90;;;;;;5013349;28;20054;-76
2022/09/22 01:11:19;;;;;;;15.30;4.32;;;6.40;99.90;;;;;;5012433;28;20045;-76
2022/09/22 01:13:53;;;;;;;10.95;3.00;;;6.40;99.90;;;;;;5013840;28;20054;-79
2022/09/22 01:16:48;;;;;;;7.20;2.58;;;6.30;99.90;;;;;;5013267;28;20046;-76
2022/09/22 01:19:39;;;;;;;7.90;2.83;;;6.20;99.90;;;;;;4996372;28;20062;-79
2022/09/22 01:22:38;;;;;;;11.88;3.20;;;6.20;99.90;;;;;;5012469;28;20053;-76
2022/09/22 01:25:56;;;;;;;10.30;3.17;;;6.20;99.90;;;;;;5011509;28;20065;-79
2022/09/22 01:28:45;;;;;;;9.38;3.05;;;6.10;99.90;;;;;;4980278;28;20529;-75
2022/09/22 01:31:36;;;;;;;13.02;3.40;;;6.20;99.90;;;;;;5012758;28;20129;-76
2022/09/22 01:34:14;;;;;;;9.50;3.50;;;6.20;99.90;;;;;;5012164;28;20449;-76
2022/09/22 01:36:55;;;;;;;12.00;3.53;;;6.20;99.90;;;;;;5012608;28;20537;-77
2022/09/22 01:39:33;;;;;;;10.45;2.85;;;6.20;99.90;;;;;;5011928;28;20100;-77
2022/09/22 01:42:05;;;;;;;11.52;4.18;;;6.20;99.90;;;;;;5013056;28;20046;-76
2022/09/22 01:44:34;;;;;;;19.15;5.22;;;6.10;99.90;;;;;;5012136;28;20103;-76
2022/09/22 01:47:20;;;;;;;16.17;5.32;;;6.10;99.90;;;;;;5012881;28;20147;-76
2022/09/22 01:49:51;;;;;;;18.50;6.18;;;6.10;99.90;;;;;;5016844;28;20049;-76
2022/09/22 01:52:22;;;;;;;14.40;6.05;;;6.10;99.90;;;;;;5016931;28;20054;-82
2022/09/22 01:54:56;;;;;;;15.45;5.95;;;6.10;99.90;;;;;;5016980;28;20050;-76
2022/09/22 01:57:57;;;;;;;14.80;5.28;;;6.10;99.90;;;;;;5015539;28;20056;-77
2022/09/22 02:00:23;;;;;;;18.75;6.55;;;6.00;99.90;;;;;;5009111;28;20116;-77
2022/09/22 02:02:55;;;;;;;17.45;6.20;;;6.10;99.90;;;;;;5016707;28;20081;-77
2022/09/22 02:05:27;;;;;;;16.55;6.70;;;6.00;99.90;;;;;;5016046;28;20050;-75
2022/09/22 02:07:54;;;;;;;13.40;5.85;;;6.00;99.90;;;;;;5015657;28;20037;-77
2022/09/22 02:10:23;;;;;;;;;;;6.00;99.90;;;;;;5017046;28;20054;-77
2022/09/22 02:12:51;;;;;;;17.83;6.93;;;6.00;99.90;;;;;;5017331;28;19922;-77
2022/09/22 02:18:08;;;;;;;14.70;6.57;;;5.90;99.90;;;;;;5019835;28;20001;-75
2022/09/22 02:20:34;;;;;;;19.10;7.13;;;5.90;99.90;;;;;;5017452;28;20077;-75
2022/09/22 02:23:00;;;;;;;16.05;6.95;;;5.90;99.90;;;;;;5018469;28;20093;-77
2022/09/22 02:25:26;;;;;;;18.08;7.85;;;5.90;99.90;;;;;;5018527;28;20094;-76
2022/09/22 02:27:54;;;;;;;16.77;7.00;;;5.90;99.90;;;;;;5018165;28;20081;-76
2022/09/22 02:30:21;;;;;;;16.67;6.70;;;5.90;99.90;;;;;;4999476;28;20293;-82
2022/09/22 02:32:50;;;;;;;17.25;6.50;;;5.90;99.90;;;;;;5016902;28;20193;-76
2022/09/22 02:35:16;;;;;;;20.08;8.05;;;5.80;99.90;;;;;;5017300;28;20121;-77
2022/09/22 02:38:09;;;;;;;15.40;7.43;;;5.80;99.90;;;;;;5017391;28;20046;-76
2022/09/22 02:41:05;;;;;;;22.67;9.70;;;5.80;99.90;;;;;;5016223;28;20046;-74
2022/09/22 02:43:48;;;;;;;18.27;8.70;;;5.80;99.90;;;;;;5017634;28;20096;-76
2022/09/22 02:46:19;;;;;;;21.30;7.40;;;5.80;99.90;;;;;;5016671;28;20292;-75
2022/09/22 02:48:48;;;;;;;17.15;7.80;;;5.80;99.90;;;;;;5015316;28;20081;-75
2022/09/22 02:51:15;;;;;;;21.40;9.02;;;5.80;99.90;;;;;;5015923;28;20099;-77
2022/09/22 02:53:40;;;;;;;22.67;9.02;;;5.90;99.90;;;;;;5014951;28;20474;-76
2022/09/22 02:56:07;;;;;;;21.00;7.68;;;5.70;99.90;;;;;;5015171;28;20161;-75
2022/09/22 02:58:32;;;;;;;21.77;8.60;;;5.70;99.90;;;;;;5014410;28;20050;-75
2022/09/22 03:00:58;;;;;;;23.02;8.50;;;5.70;99.90;;;;;;5016915;28;20076;-79
2022/09/22 03:03:24;;;;;;;21.63;8.90;;;5.70;99.90;;;;;;5017097;28;20355;-80
2022/09/22 03:05:49;;;;;;;21.88;8.82;;;5.70;99.90;;;;;;5015674;28;20065;-75
2022/09/22 03:08:15;;;;;;;20.88;9.43;;;5.70;99.90;;;;;;5015447;28;20050;-77
2022/09/22 03:10:41;;;;;;;22.90;8.75;;;5.70;99.90;;;;;;5000040;28;20116;-79
2022/09/22 03:13:07;;;;;;;24.30;9.57;;;5.60;99.90;;;;;;4999640;28;20108;-76
2022/09/22 03:15:33;;;;;;;19.23;8.15;;;5.70;99.90;;;;;;5016330;28;20468;-76
2022/09/22 03:17:58;;;;;;;18.75;7.82;;;5.70;99.90;;;;;;5015890;28;20066;-75
2022/09/22 03:20:24;;;;;;;17.48;8.18;;;5.60;99.90;;;;;;5016291;28;20144;-81
2022/09/22 03:22:50;;;;;;;15.85;7.90;;;5.60;99.90;;;;;;5014698;28;20045;-75
2022/09/22 03:25:16;;;;;;;23.77;8.90;;;5.60;99.90;;;;;;5014270;28;20128;-78
2022/09/22 03:27:41;;;;;;;20.98;8.82;;;5.50;99.90;;;;;;5015137;28;20056;-75
2022/09/22 03:30:08;;;;;;;18.25;8.25;;;5.50;99.90;;;;;;5015407;28;20038;-75
2022/09/22 03:32:34;;;;;;;16.60;8.45;;;5.50;99.90;;;;;;5014736;28;20046;-75
2022/09/22 03:35:00;;;;;;;25.50;8.98;;;5.40;99.90;;;;;;5015074;28;20431;-76
2022/09/22 03:37:26;;;;;;;19.75;9.20;;;5.50;99.90;;;;;;5013826;28;20056;-75
2022/09/22 03:39:51;;;;;;;22.13;10.48;;;5.50;99.90;;;;;;5015096;28;20125;-75
2022/09/22 03:42:17;;;;;;;23.70;10.18;;;5.50;99.90;;;;;;5015214;28;20471;-77
2022/09/22 03:44:43;;;;;;;24.50;10.77;;;5.60;99.90;;;;;;5014045;28;20049;-75
2022/09/22 03:47:09;;;;;;;20.25;10.20;;;5.50;99.90;;;;;;5015901;28;20125;-76
2022/09/22 03:49:34;;;;;;;24.83;12.80;;;5.50;99.90;;;;;;5015783;28;20042;-77
2022/09/22 03:52:01;;;;;;;24.85;11.25;;;5.50;99.90;;;;;;5016394;28;20038;-76
2022/09/22 03:54:26;;;;;;;27.70;11.93;;;5.50;99.90;;;;;;5016920;28;20053;-76
2022/09/22 03:56:52;;;;;;;23.20;12.13;;;5.50;99.90;;;;;;5015900;28;20429;-75
2022/09/22 03:59:18;;;;;;;24.92;12.43;;;5.50;99.90;;;;;;5016223;28;20530;-75
2022/09/22 04:01:44;;;;;;;28.52;13.00;;;5.50;99.90;;;;;;5017210;28;20046;-76
2022/09/22 04:04:10;;;;;;;29.38;12.48;;;5.50;99.90;;;;;;5016418;28;20053;-77
2022/09/22 04:06:36;;;;;;;26.25;13.05;;;5.60;99.90;;;;;;5017042;28;20171;-77
2022/09/22 04:09:03;;;;;;;27.43;14.17;;;5.40;99.90;;;;;;5018106;28;20053;-76
2022/09/22 04:11:29;;;;;;;27.55;13.02;;;5.40;99.90;;;;;;5001579;28;20707;-75
2022/09/22 04:13:54;;;;;;;29.17;13.52;;;5.40;99.90;;;;;;5019385;28;20054;-76
2022/09/22 04:16:20;;;;;;;26.73;13.25;;;5.40;99.90;;;;;;5019338;28;20049;-79
2022/09/22 04:18:46;;;;;;;30.10;13.82;;;5.30;99.90;;;;;;4999158;28;20104;-75
2022/09/22 04:21:12;;;;;;;28.23;14.07;;;5.30;99.90;;;;;;5015228;28;20481;-76
2022/09/22 04:23:37;;;;;;;33.65;15.27;;;5.30;99.90;;;;;;5014214;28;20134;-76
2022/09/22 04:26:04;;;;;;;30.85;14.48;;;5.30;99.90;;;;;;4997858;28;20207;-76
2022/09/22 04:28:30;;;;;;;28.23;15.88;;;5.30;99.90;;;;;;5015109;28;20053;-78
2022/09/22 04:30:57;;;;;;;36.92;16.63;;;5.30;99.90;;;;;;5015738;28;20053;-76
2022/09/22 04:33:23;;;;;;;35.35;17.27;;;5.30;99.90;;;;;;5014223;28;20054;-76
2022/09/22 04:35:49;;;;;;;33.28;16.25;;;5.30;99.90;;;;;;5014370;28;20069;-75
2022/09/22 04:43:26;;;;;;;30.30;15.98;;;5.20;99.90;;;;;;5035481;23;21584;-80
2022/09/22 04:45:52;;;;;;;31.02;16.83;;;5.20;99.90;;;;;;4993729;28;20051;-76
2022/09/22 04:48:18;;;;;;;31.80;16.42;;;5.20;99.90;;;;;;4992796;28;20555;-76
2022/09/22 04:50:43;;;;;;;32.10;15.82;;;5.20;99.90;;;;;;4992566;28;20038;-80
2022/09/22 04:53:09;;;;;;;34.95;16.95;;;5.20;99.90;;;;;;4993327;28;20137;-76
2022/09/22 04:55:35;;;;;;;37.88;17.75;;;5.10;99.90;;;;;;4992787;28;20053;-75
2022/09/22 04:58:01;;;;;;;37.88;18.20;;;5.10;99.90;;;;;;4993916;28;20551;-75
2022/09/22 05:00:28;;;;;;;40.47;19.08;;;5.20;99.90;;;;;;4993805;28;20069;-74
2022/09/22 05:02:54;;;;;;;35.22;17.30;;;5.20;99.90;;;;;;4976866;28;20061;-75
2022/09/22 05:05:22;;;;;;;35.80;17.90;;;5.10;99.90;;;;;;4992968;28;20043;-76
2022/09/22 05:07:52;;;;;;;35.53;18.58;;;5.20;99.90;;;;;;4994165;28;20065;-76
2022/09/22 05:10:19;;;;;;;36.83;18.15;;;5.10;99.90;;;;;;4994015;28;20492;-75
2022/09/22 05:12:45;;;;;;;38.63;17.75;;;5.20;99.90;;;;;;4996994;28;20488;-75
2022/09/22 05:15:13;;;;;;;37.20;18.73;;;5.20;99.90;;;;;;4994225;28;20046;-75
2022/09/22 05:17:49;;;;;;;36.90;18.92;;;5.20;99.90;;;;;;4992687;28;20046;-75
2022/09/22 05:20:16;;;;;;;35.85;17.77;;;5.10;99.90;;;;;;4993874;28;20072;-76
2022/09/22 05:22:42;;;;;;;41.73;20.27;;;5.20;99.90;;;;;;4992533;28;20058;-79
2022/09/22 05:25:13;;;;;;;40.40;19.20;;;5.10;99.90;;;;;;4992709;28;20321;-75
2022/09/22 05:27:50;;;;;;;39.75;20.15;;;5.10;99.90;;;;;;4993982;28;20461;-75
2022/09/22 05:30:17;;;;;;;43.38;20.23;;;5.20;99.90;;;;;;4993844;28;20046;-80
2022/09/22 05:32:47;;;;;;;37.88;19.35;;;5.20;99.90;;;;;;4995130;28;20183;-78
2022/09/22 05:35:16;;;;;;;54.95;20.23;;;5.20;99.90;;;;;;4993999;28;20125;-77
2022/09/22 05:37:43;;;;;;;41.38;18.88;;;5.20;99.90;;;;;;4981416;28;20058;-75
2022/09/22 05:40:10;;;;;;;48.92;20.00;;;5.30;99.90;;;;;;4997334;28;20046;-76
2022/09/22 05:42:43;;;;;;;35.28;17.75;;;5.20;99.90;;;;;;4994240;28;20066;-76
2022/09/22 05:45:09;;;;;;;37.80;19.05;;;5.20;99.90;;;;;;4995493;28;20046;-78
2022/09/22 05:47:35;;;;;;;40.40;19.25;;;5.20;99.90;;;;;;4994199;28;20201;-75
2022/09/22 05:50:01;;;;;;;44.90;21.00;;;5.20;99.90;;;;;;4977679;28;20031;-76
2022/09/22 05:52:27;;;;;;;47.80;21.23;;;5.30;99.90;;;;;;4995428;28;20054;-74
2022/09/22 05:54:53;;;;;;;43.70;19.85;;;5.20;99.90;;;;;;4994441;28;20133;-76
2022/09/22 05:57:24;;;;;;;35.30;18.42;;;5.30;99.90;;;;;;4993528;28;20129;-82
2022/09/22 05:59:50;;;;;;;38.03;18.60;;;5.40;99.90;;;;;;4979218;28;20046;-75
2022/09/22 06:02:16;;;;;;;41.03;19.60;;;5.40;99.90;;;;;;4994184;28;20084;-75
2022/09/22 06:04:42;;;;;;;36.47;19.08;;;5.50;99.90;;;;;;4995900;28;20055;-75
2022/09/22 06:07:07;;;;;;;35.03;18.00;;;5.50;99.90;;;;;;4994955;28;20053;-74
2022/09/22 06:09:33;;;;;;;36.97;19.25;;;5.50;99.90;;;;;;4994616;28;20109;-76
2022/09/22 06:11:59;;;;;;;40.30;19.55;;;5.50;99.90;;;;;;4993634;28;20050;-74
2022/09/22 06:14:25;;;;;;;46.17;20.90;;;5.60;99.90;;;;;;4993236;28;20084;-75
2022/09/22 06:16:52;;;;;;;40.40;19.27;;;5.70;99.90;;;;;;4993355;28;20130;-74
2022/09/22 06:19:18;;;;;;;35.92;18.88;;;5.70;99.90;;;;;;4992968;28;20050;-78
2022/09/22 06:21:44;;;;;;;36.15;19.30;;;5.80;99.90;;;;;;4977104;28;20076;-76
2022/09/22 06:24:11;;;;;;;39.53;20.30;;;5.90;99.90;;;;;;4993562;28;20093;-75
2022/09/22 06:26:37;;;;;;;43.92;20.02;;;5.90;99.90;;;;;;4993726;28;20072;-75
2022/09/22 06:29:02;;;;;;;35.33;19.00;;;6.00;99.90;;;;;;4995239;28;20129;-75
2022/09/22 06:31:28;;;;;;;36.90;19.90;;;6.10;99.90;;;;;;4994916;28;20208;-78
2022/09/22 06:33:54;;;;;;;39.80;19.73;;;6.10;99.90;;;;;;4998503;28;20046;-76
2022/09/22 06:36:26;;;;;;;40.60;20.70;;;6.20;99.90;;;;;;4999642;28;20060;-75
2022/09/22 06:38:54;;;;;;;38.88;19.95;;;6.30;99.90;;;;;;4997386;28;20046;-74
2022/09/22 06:41:20;;;;;;;39.63;19.80;;;6.30;99.90;;;;;;4996162;28;20053;-75
2022/09/22 06:43:47;;;;;;;44.63;21.10;;;6.40;99.90;;;;;;4996591;28;20050;-74
2022/09/22 06:46:17;;;;;;;43.17;21.08;;;6.50;99.90;;;;;;4997154;28;20054;-75
2022/09/22 06:48:44;;;;;;;40.97;20.13;;;6.50;99.90;;;;;;4997946;28;20046;-75
2022/09/22 06:51:09;;;;;;;41.67;20.52;;;6.60;99.90;;;;;;4999432;28;20051;-75
2022/09/22 06:53:35;;;;;;;41.65;20.42;;;6.70;99.90;;;;;;4999895;28;20081;-78
2022/09/22 06:56:04;;;;;;;40.90;19.55;;;6.80;99.90;;;;;;4982263;28;20073;-75
2022/09/22 06:58:31;;;;;;;40.85;20.17;;;6.90;99.90;;;;;;5000870;28;20065;-74
2022/09/22 07:01:04;;;;;;;40.63;18.77;;;7.00;99.90;;;;;;4997096;28;20050;-76
2022/09/22 07:03:32;;;;;;;38.45;19.60;;;7.20;99.90;;;;;;4998187;28;20046;-74
2022/09/22 07:06:00;;;;;;;45.13;19.77;;;7.30;99.90;;;;;;5000642;28;20088;-75
2022/09/22 07:08:27;;;;;;;38.80;19.40;;;7.40;99.90;;;;;;5001772;28;20061;-76
2022/09/22 07:10:55;;;;;;;43.13;19.38;;;7.50;99.90;;;;;;4997521;28;20054;-76
2022/09/22 07:13:22;;;;;;;37.38;17.77;;;7.70;99.90;;;;;;4998695;28;20085;-76
2022/09/22 07:15:48;;;;;;;40.92;18.13;;;7.80;99.90;;;;;;4995579;28;20050;-77
2022/09/22 07:18:14;;;;;;;40.85;19.40;;;7.80;99.90;;;;;;4996610;28;20057;-77
2022/09/22 07:20:40;;;;;;;39.75;17.95;;;8.00;99.90;;;;;;4995575;28;20125;-78
2022/09/22 07:23:15;;;;;;;36.25;16.88;;;8.10;99.90;;;;;;4996421;28;20387;-74
2022/09/22 07:25:41;;;;;;;32.90;16.88;;;8.20;99.90;;;;;;4996025;28;20536;-76
2022/09/22 07:28:12;;;;;;;32.10;16.75;;;8.30;99.90;;;;;;4997678;28;20506;-76
2022/09/22 07:30:39;;;;;;;37.30;17.75;;;8.40;99.90;;;;;;4998935;28;20093;-76
2022/09/22 07:33:04;;;;;;;36.08;16.70;;;8.50;99.90;;;;;;5000087;28;20124;-78
2022/09/22 07:35:30;;;;;;;30.67;16.63;;;8.50;99.90;;;;;;5000062;28;20043;-78
2022/09/22 07:37:59;;;;;;;33.67;16.10;;;8.70;99.90;;;;;;5004198;28;20057;-77
2022/09/22 07:40:25;;;;;;;34.42;18.05;;;8.80;99.90;;;;;;5007565;28;20081;-78
2022/09/22 07:42:51;;;;;;;34.35;17.90;;;8.90;99.90;;;;;;5005102;28;20050;-77
2022/09/22 07:45:16;;;;;;;35.90;16.15;;;9.10;99.90;;;;;;5000383;28;20518;-77
2022/09/22 07:50:28;;;;;;;29.45;16.50;;;9.20;99.90;;;;;;4999902;28;20050;-77
2022/09/22 07:52:54;;;;;;;34.42;16.48;;;9.40;99.90;;;;;;4999874;28;20169;-77
2022/09/22 07:55:22;;;;;;;30.45;16.08;;;9.60;99.90;;;;;;4966192;28;20050;-76
2022/09/22 07:57:59;;;;;;;29.13;15.13;;;9.60;99.90;;;;;;4998375;28;20485;-76
2022/09/22 08:00:27;;;;;;;36.60;15.07;;;9.70;99.90;;;;;;4997913;28;20085;-75
2022/09/22 08:02:54;;;;;;;28.38;15.13;;;9.80;99.90;;;;;;4996274;28;20156;-76
2022/09/22 08:05:26;;;;;;;27.67;15.55;;;9.90;99.90;;;;;;4997723;28;20543;-75
2022/09/22 08:07:56;;;;;;;30.25;14.55;;;9.90;99.90;;;;;;4997450;28;20125;-74
2022/09/22 08:10:21;;;;;;;28.33;13.45;;;10.00;99.90;;;;;;4998661;28;20046;-76
2022/09/22 08:12:50;;;;;;;24.90;12.90;;;10.10;99.90;;;;;;4996141;28;20066;-74
2022/09/22 08:15:15;;;;;;;27.00;13.02;;;10.30;99.90;;;;;;4997969;28;20053;-74
2022/09/22 08:17:42;;;;;;;22.80;12.70;;;10.40;99.90;;;;;;4980622;28;20046;-75
2022/09/22 08:20:08;;;;;;;27.42;12.40;;;10.60;99.90;;;;;;4996969;28;20118;-75
2022/09/22 08:22:34;;;;;;;25.55;12.82;;;10.60;99.90;;;;;;4998754;28;20506;-79
2022/09/22 08:25:00;;;;;;;23.90;13.05;;;10.80;99.90;;;;;;4997611;28;20046;-75
2022/09/22 08:27:26;;;;;;;26.63;12.35;;;10.80;99.90;;;;;;4998500;28;20053;-75
2022/09/22 08:29:52;;;;;;;25.13;11.90;;;10.90;99.90;;;;;;4979434;28;20046;-75
2022/09/22 08:32:18;;;;;;;21.27;12.00;;;11.00;99.90;;;;;;4996875;28;20081;-75
2022/09/22 08:34:46;;;;;;;26.85;12.73;;;11.20;99.90;;;;;;4995065;28;20056;-74
2022/09/22 08:37:12;;;;;;;27.73;12.07;;;11.30;99.90;;;;;;4979973;28;20056;-79
2022/09/22 08:39:39;;;;;;;25.08;12.07;;;11.40;99.90;;;;;;4979853;28;20047;-77
2022/09/22 08:42:08;;;;;;;22.95;11.18;;;11.50;99.90;;;;;;4979131;28;20505;-73
2022/09/22 08:45:00;;;;;;;20.85;11.02;;;11.60;99.90;;;;;;4996275;28;20129;-75
2022/09/22 08:53:43;;;;;;;20.73;11.23;;;12.10;99.90;;;;;;4994198;28;20100;-77
2022/09/22 08:56:16;;;;;;;;;;;12.10;99.90;;;;;;4979399;28;20304;-76
2022/09/22 08:58:49;;;;;;;26.08;10.73;;;12.10;99.90;;;;;;4995342;28;20299;-75
2022/09/22 09:01:34;;;;;;;20.20;9.85;;;12.20;99.90;;;;;;4994905;28;20050;-76
2022/09/22 09:04:41;;;;;;;20.77;10.43;;;12.40;99.90;;;;;;4994630;28;20054;-75
2022/09/22 09:07:27;;;;;;;21.63;10.45;;;12.40;99.90;;;;;;4993970;28;20144;-75
2022/09/22 09:10:28;;;;;;;17.63;9.90;;;12.60;99.90;;;;;;4992876;28;20054;-75
2022/09/22 09:12:59;;;;;;;19.48;10.75;;;12.70;99.90;;;;;;5009018;28;20217;-76
2022/09/22 09:15:40;;;;;;;21.23;9.38;;;12.80;99.90;;;;;;4993623;28;20046;-75
2022/09/22 09:18:14;;;;;;;20.38;10.40;;;12.90;99.90;;;;;;4992824;28;20049;-75
2022/09/22 09:20:46;;;;;;;18.90;10.65;;;13.00;99.90;;;;;;4993915;28;20555;-83
2022/09/22 09:23:16;;;;;;;24.02;10.27;;;13.20;99.90;;;;;;4993630;28;20042;-75
2022/09/22 09:25:45;;;;;;;20.73;9.88;;;13.30;99.90;;;;;;4993749;28;20168;-75
2022/09/22 09:28:41;;;;;;;18.63;8.93;;;13.40;99.90;;;;;;4976747;28;20061;-75
2022/09/22 09:31:19;;;;;;;15.68;9.30;;;13.50;99.90;;;;;;4993629;28;20129;-74
2022/09/22 09:34:01;;;;;;;16.23;8.80;;;13.50;99.90;;;;;;4992025;28;20050;-74
2022/09/22 09:36:34;;;;;;;19.52;9.10;;;13.50;99.90;;;;;;4993026;28;20050;-75
2022/09/22 09:39:22;;;;;;;17.63;9.20;;;13.60;99.90;;;;;;4993719;28;20437;-74
2022/09/22 09:41:49;;;;;;;15.15;7.80;;;13.70;99.90;;;;;;4975259;28;20194;-77
2022/09/22 09:44:29;;;;;;;16.05;7.47;;;13.80;99.90;;;;;;4976154;28;20141;-73
2022/09/22 09:47:06;;;;;;;16.33;6.43;;;13.80;99.90;;;;;;4993711;28;20054;-74
2022/09/22 09:49:33;;;;;;;16.63;5.88;;;14.00;99.90;;;;;;4993346;28;20061;-78
2022/09/22 09:52:00;;;;;;;15.02;6.63;;;14.10;99.90;;;;;;5008140;28;20053;-81
2022/09/22 09:54:27;;;;;;;12.18;5.75;;;14.20;99.90;;;;;;4992249;28;20509;-74
2022/09/22 09:57:06;;;;;;;14.82;6.28;;;14.20;99.90;;;;;;4993172;28;20039;-74
2022/09/22 10:02:31;;;;;;;13.65;6.35;;;14.40;99.90;;;;;;4992238;28;20509;-74
2022/09/22 10:05:21;;;;;;;16.08;5.20;;;14.50;99.90;;;;;;5008881;28;20125;-75
2022/09/22 10:07:59;;;;;;;13.15;5.05;;;14.60;99.90;;;;;;4990419;28;20119;-74
2022/09/22 10:10:36;;;;;;;17.02;6.68;;;14.50;99.90;;;;;;4996896;28;20082;-75
2022/09/22 10:13:05;;;;;;;14.65;6.68;;;14.70;99.90;;;;;;4995725;28;20505;-73
2022/09/22 10:15:36;;;;;;;15.00;6.78;;;14.70;99.90;;;;;;4997254;28;20046;-74
2022/09/22 10:18:23;;;;;;;12.13;6.82;;;15.00;99.90;;;;;;5011556;28;20057;-75
2022/09/22 10:21:14;;;;;;;15.23;6.80;;;15.10;99.90;;;;;;4996641;28;20049;-75
2022/09/22 10:23:45;;;;;;;13.98;6.22;;;15.10;99.90;;;;;;4996130;28;20057;-75
2022/09/22 10:26:18;;;;;;;15.63;6.70;;;15.10;99.90;;;;;;4996645;28;20149;-76
2022/09/22 10:28:49;;;;;;;15.70;7.13;;;15.30;99.90;;;;;;4995413;28;20185;-74
2022/09/22 10:31:25;;;;;;;16.15;6.60;;;15.20;99.90;;;;;;4997129;28;20050;-75
2022/09/22 10:33:56;;;;;;;17.55;5.70;;;15.20;99.90;;;;;;4996348;28;20517;-76
2022/09/22 10:36:24;;;;;;;12.80;5.80;;;15.20;99.90;;;;;;4979081;28;20057;-76
2022/09/22 10:38:52;;;;;;;15.68;5.93;;;15.40;99.90;;;;;;4979007;28;20108;-75
2022/09/22 10:41:26;;;;;;;12.38;4.75;;;15.40;99.90;;;;;;4995204;28;20097;-75
2022/09/22 10:44:28;;;;;;;17.30;5.05;;;15.40;99.90;;;;;;4995500;28;20089;-76
2022/09/22 10:46:54;;;;;;;14.55;6.35;;;15.50;99.90;;;;;;4974245;28;20047;-76
2022/09/22 10:49:38;;;;;;;14.10;5.65;;;15.60;99.90;;;;;;4986798;28;20077;-75
2022/09/22 10:52:19;;;;;;;13.43;6.10;;;15.60;99.90;;;;;;4996188;28;20516;-76
2022/09/22 10:55:06;;;;;;;12.98;5.63;;;15.60;99.90;;;;;;4996260;28;20050;-76
2022/09/22 10:57:44;;;;;;;14.65;6.03;;;15.60;99.90;;;;;;4995692;28;20085;-75
2022/09/22 11:00:14;;;;;;;12.30;5.28;;;15.80;99.90;;;;;;4995801;28;20532;-75
2022/09/22 11:02:59;;;;;;;10.27;5.65;;;15.70;99.90;;;;;;4978864;28;20125;-76
2022/09/22 11:14:14;;;;;;;16.98;6.90;;;16.00;99.90;;;;;;4995199;28;20443;-76
2022/09/22 11:16:45;;;;;;;20.30;7.47;;;16.00;99.90;;;;;;4995627;28;20057;-75
2022/09/22 11:19:12;;;;;;;14.65;7.35;;;16.30;99.90;;;;;;4995508;28;20054;-77
2022/09/22 11:21:52;;;;;;;16.40;7.67;;;16.30;99.90;;;;;;4995514;28;20042;-75
2022/09/22 11:24:45;;;;;;;20.17;7.53;;;16.40;99.90;;;;;;4995341;28;20132;-75
2022/09/22 11:27:35;;;;;;;16.88;7.38;;;16.50;99.90;;;;;;4995965;28;20445;-75
2022/09/22 11:30:19;;;;;;;15.77;6.78;;;16.70;99.90;;;;;;4995360;28;20398;-76
2022/09/22 11:33:06;;;;;;;11.50;6.85;;;16.80;99.90;;;;;;5010436;28;20583;-77
2022/09/22 11:35:50;;;;;;;14.00;6.68;;;16.90;99.90;;;;;;4996375;28;20359;-76
2022/09/22 11:38:37;;;;;;;15.20;7.35;;;17.20;99.90;;;;;;4995117;28;20090;-75
2022/09/22 11:41:23;;;;;;;;;;;17.30;99.90;;;;;;4994983;28;20430;-76
2022/09/22 11:43:57;;;;;;;13.70;7.43;;;17.20;99.90;;;;;;5010375;28;19961;-76
2022/09/22 11:46:46;;;;;;;13.60;7.13;;;17.20;99.90;;;;;;4993870;28;20043;-78
2022/09/22 11:49:32;;;;;;;15.00;5.97;;;17.30;99.90;;;;;;4994306;28;20154;-74
2022/09/22 11:52:13;;;;;;;18.35;6.82;;;17.30;99.90;;;;;;4990972;28;20051;-81
2022/09/22 11:55:02;;;;;;;14.60;6.40;;;17.40;99.90;;;;;;4994733;28;20058;-75
2022/09/22 11:57:32;;;;;;;14.93;6.20;;;;;;;;;;5010167;28;20042;-75
2022/09/22 12:00:20;;;;;;;13.23;6.50;;;17.10;99.90;;;;;;4994901;28;20046;-75
2022/09/22 12:03:01;;;;;;;15.32;6.35;;;16.90;99.90;;;;;;4978602;28;20054;-75
2022/09/22 12:05:40;;;;;;;14.80;7.38;;;17.00;99.90;;;;;;4994303;28;20092;-76
2022/09/22 12:08:14;;;;;;;13.57;6.25;;;17.10;99.90;;;;;;4994376;28;20438;-76
2022/09/22 12:10:47;;;;;;;19.77;8.35;;;17.30;99.90;;;;;;4993945;28;20046;-73
2022/09/22 12:13:20;;;;;;;15.80;6.18;;;17.30;99.90;;;;;;4995468;28;20050;-75
2022/09/22 12:15:57;;;;;;;15.35;6.35;;;17.40;99.90;;;;;;4994716;28;20046;-75
2022/09/22 12:18:35;;;;;;;13.05;5.63;;;17.50;99.90;;;;;;5009691;28;20046;-74
2022/09/22 12:21:23;;;;;;;16.33;6.88;;;17.40;99.90;;;;;;4993077;28;20039;-76
2022/09/22 12:23:50;;;;;;;13.02;6.20;;;17.40;99.90;;;;;;4994601;28;20469;-75
2022/09/22 12:26:31;;;;;;;11.30;5.57;;;17.30;99.90;;;;;;4993461;28;20142;-75
2022/09/22 12:29:07;;;;;;;13.68;6.60;;;17.30;99.30;;;;;;4993819;28;20050;-78
2022/09/22 12:31:39;;;;;;;15.52;6.30;;;17.30;99.40;;;;;;4961128;28;20047;-78
2022/09/22 12:34:32;;;;;;;11.88;6.70;;;17.40;97.70;;;;;;4994763;28;20046;-77
2022/09/22 12:37:28;;;;;;;14.15;6.05;;;17.30;98.80;;;;;;4974580;28;20133;-79
2022/09/22 12:39:56;;;;;;;10.35;4.47;;;17.50;99.80;;;;;;4994171;28;20058;-75
2022/09/22 12:42:25;;;;;;;12.48;4.45;;;17.70;99.90;;;;;;4992791;28;20097;-75
2022/09/22 12:44:56;;;;;;;14.75;4.93;;;17.70;99.90;;;;;;4992978;28;20471;-75
2022/09/22 12:47:35;;;;;;;9.88;4.50;;;17.70;99.50;;;;;;4977135;28;20132;-76
2022/09/22 12:50:22;;;;;;;11.00;4.40;;;17.70;99.50;;;;;;4993944;28;20528;-74
2022/09/22 12:52:49;;;;;;;11.15;4.18;;;17.70;99.90;;;;;;4993077;28;20043;-75
2022/09/22 12:55:36;;;;;;;9.65;4.20;;;17.50;99.90;;;;;;4993944;28;20533;-76
2022/09/22 12:58:26;;;;;;;9.30;4.30;;;17.30;97.80;;;;;;4994026;28;20054;-83
2022/09/22 13:00:55;;;;;;;13.48;4.47;;;17.00;98.90;;;;;;4987517;28;20463;-77
2022/09/22 13:03:23;;;;;;;8.35;4.15;;;16.90;99.30;;;;;;4992480;28;20129;-75
2022/09/22 13:06:03;;;;;;;12.25;3.75;;;16.80;99.20;;;;;;5008784;28;20089;-76
2022/09/22 13:08:29;;;;;;;11.80;4.35;;;16.60;98.90;;;;;;4994197;28;20053;-77
2022/09/22 13:11:05;;;;;;;7.47;4.10;;;16.60;99.70;;;;;;4993733;28;20057;-76
2022/09/22 13:13:30;;;;;;;9.80;3.85;;;16.60;99.50;;;;;;4993955;28;20047;-74
2022/09/22 13:15:58;;;;;;;9.48;3.72;;;16.70;99.90;;;;;;4993620;28;20089;-76
2022/09/22 13:18:39;;;;;;;11.68;3.90;;;16.80;99.90;;;;;;4993652;28;20128;-76
2022/09/22 13:21:11;;;;;;;11.70;4.40;;;16.90;99.60;;;;;;4993024;28;20086;-81
2022/09/22 13:24:01;;;;;;;9.00;4.20;;;17.00;97.40;;;;;;4993199;28;20105;-75
2022/09/22 13:26:39;;;;;;;8.27;4.13;;;17.10;96.80;;;;;;4993805;28;20051;-76
2022/09/22 13:29:19;;;;;;;8.07;3.42;;;17.20;98.90;;;;;;4993552;28;20050;-75
2022/09/22 13:31:53;;;;;;;10.80;3.70;;;17.40;99.80;;;;;;4993039;28;20486;-75
2022/09/22 13:34:27;;;;;;;10.13;3.45;;;17.40;99.90;;;;;;4992881;28;20156;-75